Time;durP1;ratioP1;P1;durP2;ratioP2;P2;SDS_P1;SDS_P2;PMS_P1;PMS_P2;Temp;Humidity;BMP_temperature;BMP_pressure;BME280_temperature;BME280_humidity;BME280_pressure;Samples;Min_cycle;Max_cycle;Signal;HPM_P1;HPM_P2
2021/12/26 00:01:45;;;;;;;;;;;;;;;13.15;50.91;101411.66;143734;984;47012;-81
2021/12/26 00:04:13;;;;;;;;;;;;;;;13.13;51.38;101406.47;143733;979;47004;-79
2021/12/26 00:06:40;;;;;;;;;;;;;;;13.13;51.46;101402.97;143735;981;46010;-81
2021/12/26 00:09:06;;;;;;;;;;;;;;;13.12;51.38;101407.50;143739;984;46002;-80
2021/12/26 00:11:32;;;;;;;;;;;;;;;13.10;51.58;101401.47;143736;979;46010;-77
2021/12/26 00:13:58;;;;;;;;;;;;;;;13.07;51.69;101411.84;143731;980;47002;-80
2021/12/26 00:16:24;;;;;;;;;;;;;;;13.10;51.73;101406.87;143734;985;46009;-79
2021/12/26 00:18:51;;;;;;;;;;;;;;;13.14;51.92;101412.72;143730;983;47004;-83
2021/12/26 00:21:19;;;;;;;;;;;;;;;13.18;51.79;101405.88;143736;984;46010;-84
2021/12/26 00:23:48;;;;;;;;;;;;;;;13.17;51.36;101410.47;143736;980;46010;-76
2021/12/26 00:26:15;;;;;;;;;;;;;;;13.21;51.40;101402.78;143735;985;46008;-76
2021/12/26 00:28:41;;;;;;;;;;;;;;;13.25;51.24;101395.97;143738;984;46000;-79
2021/12/26 00:31:08;;;;;;;;;;;;;;;13.27;51.85;101401.16;143732;984;47010;-81
2021/12/26 00:33:34;;;;;;;;;;;;;;;13.25;51.25;101404.06;143730;979;47006;-81
2021/12/26 00:36:00;;;;;;;;;;;;;;;13.20;51.73;101403.81;143733;986;46008;-80
2021/12/26 00:38:27;;;;;;;;;;;;;;;13.19;51.63;101410.25;143734;984;47000;-81
2021/12/26 00:40:52;;;;;;;;;;;;;;;13.19;51.28;101418.34;143732;975;46025;-81
2021/12/26 00:43:18;;;;;;;;;;;;;;;13.19;51.53;101399.47;143735;970;46026;-81
2021/12/26 00:45:45;;;;;;;;;;;;;;;13.16;51.60;101402.53;143733;983;46008;-80
2021/12/26 00:48:11;;;;;;;;;;;;;;;13.13;51.76;101405.66;143734;984;47000;-79
2021/12/26 00:50:38;;;;;;;;;;;;;;;13.12;51.83;101401.31;143735;984;46002;-80
2021/12/26 00:53:04;;;;;;;;;;;;;;;13.08;51.93;101406.25;143732;980;47002;-81
2021/12/26 00:55:30;;;;;;;;;;;;;;;13.00;52.25;101398.31;143733;985;47004;-81
2021/12/26 00:57:56;;;;;;;;;;;;;;;12.97;52.13;101394.13;143733;984;47000;-83
2021/12/26 01:00:30;;;;;;;;;;;;;;;12.97;52.44;101393.31;143731;982;46018;-79
2021/12/26 01:03:06;;;;;;;;;;;;;;;12.91;52.52;101388.69;143732;979;47003;-79
2021/12/26 01:05:33;;;;;;;;;;;;;;;12.88;53.13;101398.84;143733;986;46008;-79
2021/12/26 01:08:02;;;;;;;;;;;;;;;12.80;53.13;101398.16;143735;984;47000;-78
2021/12/26 01:10:37;;;;;;;;;;;;;;;12.86;52.81;101398.25;143732;973;46027;-79
2021/12/26 01:13:14;;;;;;;;;;;;;;;12.89;52.73;101392.44;143730;980;47002;-78
2021/12/26 01:15:40;;;;;;;;;;;;;;;12.91;52.55;101386.00;143733;985;46935;-79
2021/12/26 01:18:07;;;;;;;;;;;;;;;12.87;52.74;101399.06;143733;983;47000;-79
2021/12/26 01:20:49;;;;;;;;;;;;;;;12.86;52.47;101398.25;143732;984;47010;-79
2021/12/26 01:23:17;;;;;;;;;;;;;;;12.84;52.56;101403.00;143731;980;47002;-80
2021/12/26 01:25:44;;;;;;;;;;;;;;;12.82;52.79;101398.81;143733;985;46008;-81
2021/12/26 01:28:10;;;;;;;;;;;;;;;12.75;52.90;101379.91;143734;984;47000;-80
2021/12/26 01:30:38;;;;;;;;;;;;;;;12.62;53.13;101388.72;143734;984;46933;-81
2021/12/26 01:33:05;;;;;;;;;;;;;;;12.63;53.26;101403.84;143731;979;47002;-81
2021/12/26 01:35:31;;;;;;;;;;;;;;;12.65;53.27;101385.63;143733;976;46024;-81
2021/12/26 01:37:57;;;;;;;;;;;;;;;12.64;53.17;101385.84;143735;974;47000;-80
2021/12/26 01:40:23;;;;;;;;;;;;;;;12.58;53.46;101396.37;143733;983;46011;-81
2021/12/26 01:42:49;;;;;;;;;;;;;;;12.56;53.49;101387.62;143733;980;47002;-81
2021/12/26 01:45:17;;;;;;;;;;;;;;;12.56;53.58;101393.03;143734;986;46008;-80
2021/12/26 01:47:47;;;;;;;;;;;;;;;12.57;53.62;101375.84;143737;984;47000;-81
2021/12/26 01:50:13;;;;;;;;;;;;;;;12.61;53.58;101376.28;143732;984;46010;-81
2021/12/26 01:52:40;;;;;;;;;;;;;;;12.61;53.47;101378.12;143733;980;47002;-80
2021/12/26 01:55:23;;;;;;;;;;;;;;;12.61;53.36;101379.00;143734;985;46009;-82
2021/12/26 01:57:50;;;;;;;;;;;;;;;12.60;53.67;101377.31;143735;984;47004;-81
2021/12/26 02:00:16;;;;;;;;;;;;;;;12.56;53.43;101351.78;143735;984;46002;-80
2021/12/26 02:02:42;;;;;;;;;;;;;;;12.57;53.39;101361.53;143733;979;47002;-80
2021/12/26 02:05:08;;;;;;;;;;;;;;;12.62;54.21;101364.47;143733;986;46008;-80
2021/12/26 02:07:36;;;;;;;;;;;;;;;12.71;53.20;101357.91;143733;984;47000;-80
2021/12/26 02:10:03;;;;;;;;;;;;;;;12.74;53.01;101365.59;143735;983;46010;-80
2021/12/26 02:12:29;;;;;;;;;;;;;;;12.74;52.75;101356.66;143733;980;47002;-80
2021/12/26 02:14:55;;;;;;;;;;;;;;;12.77;52.71;101355.47;143734;983;46008;-80
2021/12/26 02:17:21;;;;;;;;;;;;;;;12.81;52.71;101357.56;143733;983;47000;-79
2021/12/26 02:19:50;;;;;;;;;;;;;;;12.81;52.53;101367.50;143732;984;46010;-80
2021/12/26 02:22:22;;;;;;;;;;;;;;;12.81;52.53;101362.09;143732;980;47002;-81
2021/12/26 02:25:10;;;;;;;;;;;;;;;12.82;52.57;101361.91;143733;985;46936;-81
2021/12/26 02:27:42;;;;;;;;;;;;;;;12.77;52.96;101371.63;143735;984;47000;-81
2021/12/26 02:30:13;;;;;;;;;;;;;;;12.78;52.97;101347.16;143732;984;47934;-79
2021/12/26 02:32:47;;;;;;;;;;;;;;;12.76;52.96;101349.22;143732;979;47002;-79
2021/12/26 02:35:14;;;;;;;;;;;;;;;12.82;53.01;101342.19;143734;986;46008;-80
2021/12/26 02:37:40;;;;;;;;;;;;;;;12.87;52.61;101343.28;143733;984;47000;-80
2021/12/26 02:40:06;;;;;;;;;;;;;;;12.92;52.72;101348.09;143735;977;46934;-80
2021/12/26 02:42:32;;;;;;;;;;;;;;;12.93;52.68;101336.28;143734;980;47002;-79
2021/12/26 02:44:58;;;;;;;;;;;;;;;12.88;53.08;101342.22;143733;986;46009;-80
2021/12/26 02:47:34;;;;;;;;;;;;;;;12.87;53.17;101332.50;143734;983;47000;-79
2021/12/26 02:50:05;;;;;;;;;;;;;;;12.91;52.95;101351.81;143731;984;47010;-79
2021/12/26 02:52:31;;;;;;;;;;;;;;;12.88;52.62;101339.53;143734;978;47004;-78
2021/12/26 02:54:57;;;;;;;;;;;;;;;12.90;52.89;101344.75;143732;983;47010;-80
2021/12/26 02:57:23;;;;;;;;;;;;;;;12.92;52.67;101353.47;143737;984;47002;-80
2021/12/26 02:59:49;;;;;;;;;;;;;;;12.93;52.83;101346.19;143732;986;47012;-81
2021/12/26 03:02:15;;;;;;;;;;;;;;;12.93;52.85;101336.28;143734;979;47004;-84
2021/12/26 03:04:41;;;;;;;;;;;;;;;12.85;52.92;101331.87;143733;986;46010;-82
2021/12/26 03:07:07;;;;;;;;;;;;;;;12.85;53.17;101345.34;143735;984;47002;-80
2021/12/26 03:09:43;;;;;;;;;;;;;;;12.83;53.14;101336.62;143732;983;47012;-79
2021/12/26 03:12:09;;;;;;;;;;;;;;;12.84;53.13;101334.75;143734;980;47004;-79
2021/12/26 03:14:36;;;;;;;;;;;;;;;12.80;53.22;101336.16;143730;985;47010;-79
2021/12/26 03:17:02;;;;;;;;;;;;;;;12.79;53.22;101348.81;143733;983;47002;-79
2021/12/26 03:19:32;;;;;;;;;;;;;;;12.79;53.31;101353.41;143735;972;46918;-79
2021/12/26 03:21:58;;;;;;;;;;;;;;;12.73;53.59;101353.16;143733;980;47004;-81
2021/12/26 03:24:24;;;;;;;;;;;;;;;12.69;53.80;101353.75;143735;981;46011;-81
2021/12/26 03:26:50;;;;;;;;;;;;;;;12.70;53.53;101358.94;143734;984;47002;-80
2021/12/26 03:29:16;;;;;;;;;;;;;;;12.74;53.65;101357.50;143734;974;46012;-79
2021/12/26 03:31:42;;;;;;;;;;;;;;;12.70;53.88;101367.03;143734;980;47004;-80
2021/12/26 03:34:08;;;;;;;;;;;;;;;12.69;54.05;101361.84;143734;984;46010;-80
2021/12/26 03:36:34;;;;;;;;;;;;;;;12.67;53.93;101353.09;143736;984;47003;-81
2021/12/26 03:39:00;;;;;;;;;;;;;;;12.67;53.77;101361.19;143732;980;47013;-79
2021/12/26 03:41:26;;;;;;;;;;;;;;;12.69;54.00;101351.06;143732;980;47004;-80
2021/12/26 03:43:52;;;;;;;;;;;;;;;12.65;53.95;101357.88;143734;985;46010;-78
2021/12/26 03:46:18;;;;;;;;;;;;;;;12.63;54.10;101358.03;143736;985;47002;-78
2021/12/26 03:48:44;;;;;;;;;;;;;;;12.62;54.29;101366.34;143733;984;47004;-81
2021/12/26 03:51:10;;;;;;;;;;;;;;;12.62;54.13;101367.16;143731;980;47004;-81
2021/12/26 03:53:36;;;;;;;;;;;;;;;12.61;54.52;101370.06;143735;985;46010;-81
2021/12/26 03:56:03;;;;;;;;;;;;;;;12.61;54.14;101365.50;143734;984;47002;-80
2021/12/26 03:58:29;;;;;;;;;;;;;;;12.63;54.07;101376.09;143733;984;46012;-79
2021/12/26 04:00:55;;;;;;;;;;;;;;;12.61;54.20;101364.66;143733;980;47004;-79
2021/12/26 04:03:21;;;;;;;;;;;;;;;12.63;54.24;101371.50;143733;984;46010;-80
2021/12/26 04:05:47;;;;;;;;;;;;;;;12.59;54.24;101381.03;143734;984;47002;-78
2021/12/26 04:08:13;;;;;;;;;;;;;;;12.57;54.59;101369.63;143735;984;46933;-77
2021/12/26 04:10:39;;;;;;;;;;;;;;;12.55;54.55;101372.50;143732;980;47004;-80
2021/12/26 04:13:06;;;;;;;;;;;;;;;12.58;54.60;101374.81;143732;985;46936;-80
2021/12/26 04:15:32;;;;;;;;;;;;;;;12.64;54.55;101381.25;143734;984;47002;-79
2021/12/26 04:17:58;;;;;;;;;;;;;;;12.69;54.42;101381.53;143733;984;47012;-80
2021/12/26 04:20:25;;;;;;;;;;;;;;;12.71;54.37;101389.41;143731;980;47004;-79
2021/12/26 04:22:51;;;;;;;;;;;;;;;12.68;54.21;101382.53;143734;985;46011;-80
2021/12/26 04:25:18;;;;;;;;;;;;;;;12.67;54.35;101378.19;143736;968;47002;-79
2021/12/26 04:27:44;;;;;;;;;;;;;;;12.64;54.40;101378.56;143732;984;46012;-79
2021/12/26 04:30:12;;;;;;;;;;;;;;;12.59;54.67;101375.66;143731;980;47005;-80
2021/12/26 04:32:38;;;;;;;;;;;;;;;12.57;54.78;101373.13;143732;985;46010;-80
2021/12/26 04:35:04;;;;;;;;;;;;;;;12.57;54.58;101369.63;143735;984;47002;-80
2021/12/26 04:37:30;;;;;;;;;;;;;;;12.56;54.87;101363.38;143734;969;46029;-79
2021/12/26 04:39:56;;;;;;;;;;;;;;;12.53;54.73;101366.47;143732;979;47004;-80
2021/12/26 04:42:22;;;;;;;;;;;;;;;12.56;54.94;101363.38;143733;985;47002;-79
2021/12/26 04:44:50;;;;;;;;;;;;;;;12.61;54.63;101367.38;143733;982;47002;-80
2021/12/26 04:47:16;;;;;;;;;;;;;;;12.56;54.74;101376.84;143734;970;46030;-79
2021/12/26 04:49:42;;;;;;;;;;;;;;;12.55;54.77;101391.34;143732;980;47004;-79
2021/12/26 04:52:08;;;;;;;;;;;;;;;12.56;54.83;101395.72;143733;984;46011;-80
2021/12/26 04:54:34;;;;;;;;;;;;;;;12.57;54.79;101383.09;143734;983;47002;-79
2021/12/26 04:57:00;;;;;;;;;;;;;;;12.58;54.67;101380.19;143734;984;46012;-80
2021/12/26 04:59:26;;;;;;;;;;;;;;;12.61;55.05;101384.38;143733;985;47004;-79
2021/12/26 05:01:53;;;;;;;;;;;;;;;12.58;54.78;101376.69;143733;985;46010;-81
2021/12/26 05:04:19;;;;;;;;;;;;;;;12.58;55.11;101384.75;143733;984;47002;-80
2021/12/26 05:06:46;;;;;;;;;;;;;;;12.57;55.00;101383.09;143737;984;46004;-80
2021/12/26 05:09:14;;;;;;;;;;;;;;;12.56;54.97;101386.81;143732;979;47004;-79
2021/12/26 05:11:40;;;;;;;;;;;;;;;12.55;55.13;101396.75;143732;986;46010;-79
2021/12/26 05:14:06;;;;;;;;;;;;;;;12.54;55.16;101378.91;143735;984;47003;-79
2021/12/26 05:16:32;;;;;;;;;;;;;;;12.54;55.45;101375.41;143732;983;46012;-80
2021/12/26 05:18:59;;;;;;;;;;;;;;;12.53;55.21;101369.16;143732;980;47004;-80
2021/12/26 05:21:24;;;;;;;;;;;;;;;12.48;55.80;101384.25;143734;985;46011;-80
2021/12/26 05:23:50;;;;;;;;;;;;;;;12.45;55.90;101377.41;143735;983;47002;-80
2021/12/26 05:26:16;;;;;;;;;;;;;;;12.52;55.77;101393.63;143734;984;46012;-79
2021/12/26 05:28:42;;;;;;;;;;;;;;;12.60;55.21;101382.72;143731;980;47005;-79
2021/12/26 05:31:08;;;;;;;;;;;;;;;12.64;55.43;101375.06;143736;985;46010;-80
2021/12/26 05:33:34;;;;;;;;;;;;;;;12.64;55.43;101375.06;143736;984;47002;-79
2021/12/26 05:36:00;;;;;;;;;;;;;;;12.67;55.39;101370.09;143734;984;47004;-78
2021/12/26 05:38:27;;;;;;;;;;;;;;;12.70;55.31;101367.03;143730;979;47004;-80
2021/12/26 05:40:54;;;;;;;;;;;;;;;12.73;55.41;101374.72;143732;985;47010;-80
2021/12/26 05:43:19;;;;;;;;;;;;;;;12.67;55.36;101371.97;143731;984;47002;-80
2021/12/26 05:45:45;;;;;;;;;;;;;;;12.73;55.49;101380.09;143733;983;46013;-80
2021/12/26 05:48:11;;;;;;;;;;;;;;;12.77;55.05;101371.63;143731;980;47004;-80
2021/12/26 05:50:37;;;;;;;;;;;;;;;12.78;55.30;101376.81;143735;972;46028;-79
2021/12/26 05:53:03;;;;;;;;;;;;;;;12.74;55.23;101386.31;143734;981;47002;-79
2021/12/26 05:55:31;;;;;;;;;;;;;;;12.76;55.25;101381.56;143733;979;46935;-80
2021/12/26 05:57:57;;;;;;;;;;;;;;;12.80;55.19;101390.94;143732;980;47002;-80
2021/12/26 06:00:23;;;;;;;;;;;;;;;12.83;54.91;101406.72;143728;985;51000;-81
2021/12/26 06:02:50;;;;;;;;;;;;;;;12.88;55.07;101396.16;143735;972;47000;-80
2021/12/26 06:05:18;;;;;;;;;;;;;;;12.87;55.15;101399.91;143731;984;46010;-80
2021/12/26 06:07:44;;;;;;;;;;;;;;;12.88;55.22;101390.75;143734;980;47002;-75
2021/12/26 06:10:10;;;;;;;;;;;;;;;12.89;55.15;101378.12;143733;986;46008;-76
2021/12/26 06:12:36;;;;;;;;;;;;;;;12.94;55.06;101396.41;143736;984;47000;-76
2021/12/26 06:15:03;;;;;;;;;;;;;;;12.99;55.01;101402.03;143734;984;46935;-78
2021/12/26 06:17:28;;;;;;;;;;;;;;;13.07;54.59;101383.00;143732;980;47002;-79
2021/12/26 06:19:54;;;;;;;;;;;;;;;13.12;54.87;101394.03;143732;986;47000;-78
2021/12/26 06:22:20;;;;;;;;;;;;;;;13.13;54.33;101393.00;143736;983;47000;-78
2021/12/26 06:24:46;;;;;;;;;;;;;;;13.18;54.51;101401.34;143731;984;47935;-79
2021/12/26 06:27:12;;;;;;;;;;;;;;;13.27;54.53;101401.16;143733;980;47002;-79
2021/12/26 06:29:38;;;;;;;;;;;;;;;13.31;54.39;101387.09;143735;985;46000;-80
2021/12/26 06:32:04;;;;;;;;;;;;;;;13.38;54.33;101392.50;143734;984;47000;-80
2021/12/26 06:34:30;;;;;;;;;;;;;;;13.43;54.78;101405.44;143734;974;47010;-80
2021/12/26 06:36:56;;;;;;;;;;;;;;;13.48;53.99;101398.38;143732;980;47002;-79
2021/12/26 06:39:22;;;;;;;;;;;;;;;13.58;53.91;101395.31;143735;984;46008;-81
2021/12/26 06:41:48;;;;;;;;;;;;;;;13.68;54.19;101399.50;143734;984;47000;-80
2021/12/26 06:44:14;;;;;;;;;;;;;;;13.71;54.27;101415.28;143734;984;46011;-81
2021/12/26 06:46:40;;;;;;;;;;;;;;;13.71;53.73;101407.19;143733;979;47002;-81
2021/12/26 06:49:07;;;;;;;;;;;;;;;13.84;53.73;101399.16;143732;986;47004;-79
2021/12/26 06:51:33;;;;;;;;;;;;;;;13.86;54.08;101404.34;143733;984;47000;-79
2021/12/26 06:53:58;;;;;;;;;;;;;;;14.00;53.58;101407.91;143731;976;47010;-79
2021/12/26 06:56:24;;;;;;;;;;;;;;;14.17;52.74;101384.88;143730;980;47002;-78
2021/12/26 06:58:51;;;;;;;;;;;;;;;14.31;53.56;101407.31;143734;981;46009;-79
2021/12/26 07:01:17;;;;;;;;;;;;;;;14.34;52.94;101397.97;143734;983;47000;-80
2021/12/26 07:03:42;;;;;;;;;;;;;;;14.43;52.65;101406.72;143727;984;49002;-79
2021/12/26 07:06:08;;;;;;;;;;;;;;;14.52;52.45;101389.25;143732;980;47002;-79
2021/12/26 07:08:34;;;;;;;;;;;;;;;14.65;52.33;101391.94;143732;985;46008;-78
2021/12/26 07:11:00;;;;;;;;;;;;;;;14.79;52.82;101403.59;143735;984;47000;-79
2021/12/26 07:13:26;;;;;;;;;;;;;;;14.85;52.37;101421.69;143734;984;47002;-79
2021/12/26 07:15:52;;;;;;;;;;;;;;;14.97;51.91;101405.66;143732;979;47002;-78
2021/12/26 07:18:18;;;;;;;;;;;;;;;15.13;51.95;101408.97;143733;986;46008;-79
2021/12/26 07:20:44;;;;;;;;;;;;;;;15.27;51.64;101426.81;143734;984;47000;-78
2021/12/26 07:23:10;;;;;;;;;;;;;;;15.41;51.07;101424.91;143733;971;46029;-79
2021/12/26 07:25:36;;;;;;;;;;;;;;;15.52;51.76;101418.00;143731;980;47002;-79
2021/12/26 07:28:02;;;;;;;;;;;;;;;15.65;50.90;101410.84;143733;985;46933;-79
2021/12/26 07:30:28;;;;;;;;;;;;;;;15.81;50.95;101410.34;143734;983;47000;-75
2021/12/26 07:32:54;;;;;;;;;;;;;;;15.93;50.90;101429.50;143733;984;46010;-76
2021/12/26 07:35:20;;;;;;;;;;;;;;;15.99;49.36;101427.78;143733;980;47002;-77
2021/12/26 07:37:46;;;;;;;;;;;;;;;16.02;49.73;101424.66;143735;975;46025;-79
2021/12/26 07:40:12;;;;;;;;;;;;;;;16.08;50.08;101418.34;143735;984;47000;-79
2021/12/26 07:42:38;;;;;;;;;;;;;;;16.15;50.87;101421.84;143732;984;46936;-78
2021/12/26 07:45:04;;;;;;;;;;;;;;;16.21;49.61;101434.53;143734;979;46011;-79
2021/12/26 07:47:30;;;;;;;;;;;;;;;16.24;49.85;101444.09;143733;985;46012;-78
2021/12/26 07:49:56;;;;;;;;;;;;;;;16.30;49.13;101447.81;143732;983;47000;-77
2021/12/26 07:52:27;;;;;;;;;;;;;;;16.31;49.11;101442.19;143732;983;46011;-77
2021/12/26 07:54:53;;;;;;;;;;;;;;;16.40;49.36;101441.91;143731;980;47002;-78
2021/12/26 07:57:19;;;;;;;;;;;;;;;16.41;49.42;101441.72;143735;986;46008;-79
2021/12/26 07:59:44;;;;;;;;;;;;;;;16.59;49.69;101442.81;143734;983;47000;-80
2021/12/26 08:02:16;;;;;;;;;;;;;;;16.71;49.81;101448.34;143732;978;47010;-79
2021/12/26 08:04:43;;;;;;;;;;;;;;;16.78;50.11;101441.81;143732;980;46939;-78
2021/12/26 08:07:09;;;;;;;;;;;;;;;16.87;49.82;101441.53;143732;985;46934;-77
2021/12/26 08:09:35;;;;;;;;;;;;;;;16.92;50.11;101437.09;143735;984;47000;-77
2021/12/26 08:12:01;;;;;;;;;;;;;;;16.91;49.49;101445.47;143733;979;47010;-78
2021/12/26 08:14:27;;;;;;;;;;;;;;;16.91;49.63;101440.03;143732;980;47002;-78
2021/12/26 08:16:52;;;;;;;;;;;;;;;16.96;49.79;101437.50;143734;985;46008;-71
2021/12/26 08:19:18;;;;;;;;;;;;;;;17.04;49.62;101431.78;143736;984;46007;-70
2021/12/26 08:21:44;;;;;;;;;;;;;;;17.11;49.80;101434.44;143732;984;47008;-75
2021/12/26 08:24:11;;;;;;;;;;;;;;;17.21;49.52;101442.06;143732;980;47002;-73
2021/12/26 08:26:37;;;;;;;;;;;;;;;17.28;49.94;101446.34;143733;986;46010;-70
2021/12/26 08:29:03;;;;;;;;;;;;;;;17.30;50.09;101461.59;143733;984;47000;-74
2021/12/26 08:31:30;;;;;;;;;;;;;;;17.38;51.24;101447.75;143732;984;46010;-71
2021/12/26 08:33:56;;;;;;;;;;;;;;;17.55;50.62;101427.06;143733;980;47002;-72
2021/12/26 08:36:22;;;;;;;;;;;;;;;17.74;50.48;101437.88;143735;985;46933;-72
2021/12/26 08:38:49;;;;;;;;;;;;;;;17.90;49.67;101452.72;143735;976;47000;-72
2021/12/26 08:41:15;;;;;;;;;;;;;;;18.06;48.50;101443.13;143733;984;46010;-73
2021/12/26 08:43:43;;;;;;;;;;;;;;;18.19;48.83;101436.66;143732;980;47002;-72
2021/12/26 08:46:11;;;;;;;;;;;;;;;18.35;48.89;101434.34;143735;985;46008;-72
2021/12/26 08:48:37;;;;;;;;;;;;;;;18.42;48.73;101443.22;143735;984;47000;-73
2021/12/26 08:51:03;;;;;;;;;;;;;;;18.44;48.44;101435.66;143733;976;46024;-72
2021/12/26 08:53:30;;;;;;;;;;;;;;;18.53;48.57;101428.84;143733;979;47010;-73
2021/12/26 08:55:57;;;;;;;;;;;;;;;18.69;48.87;101421.84;143733;985;46008;-73
2021/12/26 08:58:23;;;;;;;;;;;;;;;18.89;48.59;101431.56;143733;984;47000;-72
2021/12/26 09:00:49;;;;;;;;;;;;;;;19.07;47.55;101439.63;143734;984;46010;-72
2021/12/26 09:03:15;;;;;;;;;;;;;;;19.28;46.57;101421.03;143730;980;47002;-71
2021/12/26 09:05:41;;;;;;;;;;;;;;;19.50;46.73;101414.94;143732;986;47008;-73
2021/12/26 09:08:10;;;;;;;;;;;;;;;19.75;47.11;101402.84;143733;983;47000;-72
2021/12/26 09:10:39;;;;;;;;;;;;;;;19.90;46.52;101395.00;143735;974;46935;-72
2021/12/26 09:13:06;;;;;;;;;;;;;;;20.09;45.95;101398.34;143734;983;46011;-74
2021/12/26 09:15:32;;;;;;;;;;;;;;;20.39;45.11;101397.19;143733;985;46008;-71
2021/12/26 09:17:59;;;;;;;;;;;;;;;20.59;44.63;101404.06;143734;984;47000;-72
2021/12/26 09:20:25;;;;;;;;;;;;;;;20.67;44.34;101389.97;143732;984;47010;-78
2021/12/26 09:22:52;;;;;;;;;;;;;;;20.64;44.63;101384.19;143731;979;47002;-70
2021/12/26 09:25:17;;;;;;;;;;;;;;;20.81;44.24;101395.94;143732;986;46008;-69
2021/12/26 09:27:43;;;;;;;;;;;;;;;21.20;43.01;101404.13;143734;984;47000;-71
2021/12/26 09:30:11;;;;;;;;;;;;;;;21.39;42.48;101395.63;143735;972;46935;-70
2021/12/26 09:32:37;;;;;;;;;;;;;;;21.67;41.41;101380.09;143732;980;47002;-70
2021/12/26 09:35:04;;;;;;;;;;;;;;;21.36;42.62;101366.06;143733;985;46009;-71
2021/12/26 09:37:30;;;;;;;;;;;;;;;20.75;44.16;101380.53;143734;984;47000;-70
2021/12/26 09:39:56;;;;;;;;;;;;;;;20.24;45.20;101383.31;143735;973;46935;-70
2021/12/26 09:42:24;;;;;;;;;;;;;;;19.90;45.99;101377.81;143732;980;47003;-70
2021/12/26 09:44:51;;;;;;;;;;;;;;;19.71;46.96;101383.44;143733;985;47000;-70
2021/12/26 09:47:17;;;;;;;;;;;;;;;19.54;47.35;101376.06;143735;984;47000;-70
2021/12/26 09:49:43;;;;;;;;;;;;;;;19.46;47.10;101370.16;143733;984;46011;-71
2021/12/26 09:52:09;;;;;;;;;;;;;;;19.41;47.91;101345.53;143731;979;48002;-70
2021/12/26 09:54:35;;;;;;;;;;;;;;;19.38;48.42;101339.50;143733;981;46008;-70
2021/12/26 09:57:01;;;;;;;;;;;;;;;19.29;48.40;101360.03;143735;984;47000;-69
2021/12/26 09:59:30;;;;;;;;;;;;;;;19.23;48.35;101350.94;143735;983;46010;-69
2021/12/26 10:01:57;;;;;;;;;;;;;;;19.27;48.11;101347.72;143732;980;47002;-69
2021/12/26 10:04:27;;;;;;;;;;;;;;;19.46;47.09;101345.66;143734;985;46008;-70
2021/12/26 10:06:58;;;;;;;;;;;;;;;19.59;45.05;101341.81;143733;980;47000;-70
2021/12/26 10:09:25;;;;;;;;;;;;;;;19.68;44.29;101343.06;143734;984;46010;-71
2021/12/26 10:11:52;;;;;;;;;;;;;;;19.79;43.51;101341.34;143731;980;47002;-71
2021/12/26 10:14:33;;;;;;;;;;;;;;;19.90;42.31;101345.91;81462;57;10047076;-70
2021/12/26 10:17:03;;;;;;;;;;;;;;;19.82;43.59;101349.84;123807;985;10048604;-73
2021/12/26 10:19:55;;;;;;;;;;;;;;;19.78;45.18;101353.31;143732;968;47008;-73
2021/12/26 10:22:28;;;;;;;;;;;;;;;19.78;46.16;101347.88;143730;975;47002;-73
2021/12/26 10:24:56;;;;;;;;;;;;;;;19.65;45.48;101349.84;143726;982;47002;-72
2021/12/26 10:27:24;;;;;;;;;;;;;;;19.57;46.20;101357.56;143727;969;48000;-72
2021/12/26 10:29:54;;;;;;;;;;;;;;;19.59;46.73;101344.53;143727;984;47000;-71
2021/12/26 10:32:33;;;;;;;;;;;;;;;19.65;46.22;101330.75;143726;982;47018;-71
2021/12/26 10:35:06;;;;;;;;;;;;;;;19.76;46.47;101325.47;143726;982;47003;-73
2021/12/26 10:37:36;;;;;;;;;;;;;;;19.86;45.70;101331.09;143726;983;47004;-73
2021/12/26 10:40:21;;;;;;;;;;;;;;;19.93;43.96;101334.53;143730;985;47000;-73
2021/12/26 10:42:54;;;;;;;;;;;;;;;19.90;45.52;101334.22;143726;980;47011;-72
2021/12/26 10:45:21;;;;;;;;;;;;;;;19.90;46.16;101331.47;143729;984;47010;-70
2021/12/26 10:47:52;;;;;;;;;;;;;;;19.93;45.72;101328.28;143728;984;47004;-69
2021/12/26 10:50:19;;;;;;;;;;;;;;;20.02;45.82;101336.88;143731;974;47000;-70
2021/12/26 10:52:57;;;;;;;;;;;;;;;20.10;45.42;101323.66;143727;973;47010;-73
2021/12/26 10:55:31;;;;;;;;;;;;;;;20.14;45.35;101326.69;143727;982;47014;-73
2021/12/26 10:57:59;;;;;;;;;;;;;;;20.15;45.75;101320.97;143724;984;47009;-72
2021/12/26 11:00:26;;;;;;;;;;;;;;;20.30;45.33;101331.31;143725;984;47012;-73
2021/12/26 11:02:54;;;;;;;;;;;;;;;20.46;45.35;101331.53;143727;985;47002;-72
2021/12/26 11:05:24;;;;;;;;;;;;;;;20.43;44.34;101319.25;143727;982;47002;-72
2021/12/26 11:07:52;;;;;;;;;;;;;;;20.47;43.89;101311.37;143723;984;47008;-72
2021/12/26 11:10:47;;;;;;;;;;;;;;;20.55;43.33;101315.56;143731;982;47000;-74
2021/12/26 11:13:19;;;;;;;;;;;;;;;20.71;41.97;101311.16;143727;980;47011;-72
2021/12/26 11:15:46;;;;;;;;;;;;;;;20.84;40.86;101307.25;143730;977;47002;-73
2021/12/26 11:18:14;;;;;;;;;;;;;;;20.88;39.09;101298.31;143726;981;47008;-73
2021/12/26 11:20:44;;;;;;;;;;;;;;;20.93;38.87;101305.75;143727;984;48012;-72
2021/12/26 11:23:14;;;;;;;;;;;;;;;20.89;39.31;101297.25;143727;982;47010;-72
2021/12/26 11:25:42;;;;;;;;;;;;;;;20.88;38.03;101301.03;143727;976;47002;-72
2021/12/26 11:28:10;;;;;;;;;;;;;;;20.80;38.36;101306.94;143727;983;47008;-72
2021/12/26 11:30:36;;;;;;;;;;;;;;;20.77;39.21;101295.72;143727;984;47012;-73
2021/12/26 11:33:03;;;;;;;;;;;;;;;20.75;37.39;101301.37;143727;982;47010;-71
2021/12/26 11:35:29;;;;;;;;;;;;;;;20.74;37.89;101305.19;143728;981;47936;-78
2021/12/26 11:37:56;;;;;;;;;;;;;;;20.72;38.33;101301.91;143725;984;47004;-83
2021/12/26 11:40:22;;;;;;;;;;;;;;;20.70;38.52;101290.41;143724;979;47021;-73
2021/12/26 11:43:09;;;;;;;;;;;;;;;20.61;38.90;101292.75;143729;981;47010;-73
2021/12/26 11:45:45;;;;;;;;;;;;;;;20.57;39.61;101277.94;143725;982;47010;-73
2021/12/26 11:48:44;;;;;;;;;;;;;;;20.49;39.51;101281.94;143723;984;47008;-75
2021/12/26 11:51:36;;;;;;;;;;;;;;;20.44;39.60;101287.31;143726;984;47000;-74
2021/12/26 11:54:24;;;;;;;;;;;;;;;20.43;39.49;101285.66;143729;982;47008;-72
2021/12/26 11:57:18;;;;;;;;;;;;;;;20.40;40.01;101280.69;143725;977;48002;-69
2021/12/26 12:00:03;;;;;;;;;;;;;;;20.35;40.15;101284.19;143726;984;47004;-72
2021/12/26 12:02:55;;;;;;;;;;;;;;;20.28;39.95;101270.72;143734;978;47000;-71
2021/12/26 12:05:23;;;;;;;;;;;;;;;20.22;38.36;101266.25;143732;981;47011;-71
2021/12/26 12:07:59;;;;;;;;;;;;;;;20.19;38.94;101269.50;143732;982;47002;-73
2021/12/26 12:10:54;;;;;;;;;;;;;;;20.14;39.09;101274.88;143731;984;47000;-72
2021/12/26 12:13:43;;;;;;;;;;;;;;;20.16;41.08;101272.72;143737;985;47000;-74
2021/12/26 12:16:10;;;;;;;;;;;;;;;20.21;40.46;101263.78;143732;982;46935;-73
2021/12/26 12:18:52;;;;;;;;;;;;;;;20.28;40.29;101267.19;143733;982;47002;-71
2021/12/26 12:21:30;;;;;;;;;;;;;;;20.35;39.69;101272.47;143735;984;46008;-72
2021/12/26 12:24:04;;;;;;;;;;;;;;;20.37;39.91;101265.66;143736;986;47000;-71
2021/12/26 12:26:56;;;;;;;;;;;;;;;20.52;39.66;101266.94;143733;982;47010;-73
2021/12/26 12:29:41;;;;;;;;;;;;;;;20.69;39.99;101267.72;143734;982;47002;-73
2021/12/26 12:32:27;;;;;;;;;;;;;;;20.67;40.58;101260.87;143735;984;46008;-75
2021/12/26 12:34:57;;;;;;;;;;;;;;;20.59;41.43;101265.69;143737;986;47000;-74
2021/12/26 12:37:37;;;;;;;;;;;;;;;20.53;42.63;101279.53;143732;982;47010;-75
2021/12/26 12:40:27;;;;;;;;;;;;;;;20.47;42.27;101272.34;143734;982;47002;-73
2021/12/26 12:43:11;;;;;;;;;;;;;;;20.37;43.06;101278.50;143733;984;46008;-71